Time;durP1;ratioP1;P1;durP2;ratioP2;P2;SDS_P1;SDS_P2;PMS_P1;PMS_P2;Temp;Humidity;BMP_temperature;BMP_pressure;BME280_temperature;BME280_humidity;BME280_pressure;Samples;Min_cycle;Max_cycle;Signal;HPM_P1;HPM_P2
2021/08/23 00:00:42;;;;;;;8.40;3.17;;;;;;;;;;4989753;28;20069;-84
2021/08/23 00:03:08;;;;;;;10.05;3.75;;;;;;;;;;4998242;28;20033;-84
2021/08/23 00:05:34;;;;;;;8.73;3.70;;;;;;;;;;4997590;28;20025;-85
2021/08/23 00:08:01;;;;;;;9.18;3.67;;;;;;;;;;5001560;28;20026;-84
2021/08/23 00:10:28;;;;;;;10.50;4.03;;;;;;;;;;5000999;28;20051;-85
2021/08/23 00:12:55;;;;;;;10.05;3.58;;;;;;;;;;5000305;28;21169;-86
2021/08/23 00:15:21;;;;;;;12.48;4.25;;;;;;;;;;5001563;28;20033;-85
2021/08/23 00:17:47;;;;;;;7.65;3.15;;;;;;;;;;4992631;28;20124;-85
2021/08/23 00:20:16;;;;;;;8.98;3.95;;;;;;;;;;5004569;28;20045;-84
2021/08/23 00:22:51;;;;;;;9.90;3.67;;;;;;;;;;4997046;28;20026;-84
2021/08/23 00:25:18;;;;;;;12.65;4.35;;;;;;;;;;5024543;28;20124;-85
2021/08/23 00:27:44;;;;;;;8.18;3.70;;;;;;;;;;5017063;28;20037;-85
2021/08/23 00:30:12;;;;;;;11.00;3.88;;;;;;;;;;5015856;28;20041;-84
2021/08/23 00:32:38;;;;;;;9.40;3.53;;;;;;;;;;5000480;28;20037;-84
2021/08/23 00:35:04;;;;;;;9.13;3.97;;;;;;;;;;4998664;28;20037;-85
2021/08/23 00:37:31;;;;;;;9.40;4.38;;;;;;;;;;5002811;28;20018;-84
2021/08/23 00:39:57;;;;;;;8.55;3.50;;;;;;;;;;5004952;28;20022;-86
2021/08/23 00:42:23;;;;;;;10.55;4.15;;;;;;;;;;5004582;28;20021;-85
2021/08/23 00:44:50;;;;;;;8.90;3.70;;;;;;;;;;5001621;28;20033;-85
2021/08/23 00:47:16;;;;;;;8.68;3.60;;;;;;;;;;5010913;28;20037;-85
2021/08/23 00:49:42;;;;;;;9.38;3.67;;;;;;;;;;5006757;28;20045;-85
2021/08/23 00:52:15;;;;;;;8.38;3.33;;;;;;;;;;5018567;28;20041;-85
2021/08/23 00:54:41;;;;;;;10.13;3.70;;;;;;;;;;5018320;28;20375;-84
2021/08/23 00:57:07;;;;;;;10.00;3.70;;;;;;;;;;5028740;28;20064;-85
2021/08/23 00:59:40;;;;;;;9.65;3.70;;;;;;;;;;5010651;28;20029;-85
2021/08/23 01:02:17;;;;;;;8.32;4.22;;;;;;;;;;5008957;28;20034;-85
2021/08/23 01:04:57;;;;;;;9.73;3.80;;;;;;;;;;5009873;28;20036;-84
2021/08/23 01:07:24;;;;;;;7.60;3.40;;;;;;;;;;5005277;28;20029;-84
2021/08/23 01:09:59;;;;;;;7.78;3.60;;;;;;;;;;5004720;28;20077;-83
2021/08/23 01:12:27;;;;;;;8.73;4.25;;;;;;;;;;5008835;28;20542;-84
2021/08/23 01:14:53;;;;;;;10.60;3.80;;;;;;;;;;5005114;28;20594;-85
2021/08/23 01:17:19;;;;;;;9.95;4.00;;;;;;;;;;5007811;28;20540;-85
2021/08/23 01:19:46;;;;;;;8.98;3.58;;;;;;;;;;5000660;28;20093;-85
2021/08/23 01:22:13;;;;;;;9.23;3.55;;;;;;;;;;5020422;28;20017;-83
2021/08/23 01:24:40;;;;;;;10.43;3.85;;;;;;;;;;5016909;28;20727;-84
2021/08/23 01:27:08;;;;;;;9.85;3.83;;;;;;;;;;5019654;28;20025;-84
2021/08/23 01:29:52;;;;;;;9.05;3.90;;;;;;;;;;5007000;28;20036;-83
2021/08/23 01:32:22;;;;;;;9.13;4.13;;;;;;;;;;5004418;28;20025;-83
2021/08/23 01:34:49;;;;;;;11.15;3.78;;;;;;;;;;4989263;28;20163;-83
2021/08/23 01:37:16;;;;;;;10.70;4.30;;;;;;;;;;5004645;28;20044;-85
2021/08/23 01:39:42;;;;;;;11.07;4.65;;;;;;;;;;5016352;28;20025;-84
2021/08/23 01:42:09;;;;;;;9.65;4.32;;;;;;;;;;5002384;28;20080;-84
2021/08/23 01:44:35;;;;;;;12.52;4.38;;;;;;;;;;5001049;28;20080;-84
2021/08/23 01:47:02;;;;;;;9.77;4.28;;;;;;;;;;5013451;28;20037;-83
2021/08/23 01:49:28;;;;;;;9.82;4.25;;;;;;;;;;5015261;28;20040;-85
2021/08/23 01:51:55;;;;;;;8.98;3.95;;;;;;;;;;5015379;28;20068;-84
2021/08/23 01:54:22;;;;;;;9.38;4.03;;;;;;;;;;5031180;28;20037;-85
2021/08/23 01:56:48;;;;;;;9.93;4.18;;;;;;;;;;5011428;28;21574;-84
2021/08/23 01:59:14;;;;;;;11.05;4.07;;;;;;;;;;5007702;28;20180;-83
2021/08/23 02:01:41;;;;;;;10.02;4.38;;;;;;;;;;4997792;28;20029;-84
2021/08/23 02:04:07;;;;;;;9.88;4.13;;;;;;;;;;5002790;28;20021;-85
2021/08/23 02:06:33;;;;;;;9.23;3.70;;;;;;;;;;4999434;28;20142;-85
2021/08/23 02:08:59;;;;;;;8.85;3.85;;;;;;;;;;5000740;28;20060;-85
2021/08/23 02:11:26;;;;;;;9.60;3.92;;;;;;;;;;4998417;28;20025;-85
2021/08/23 02:13:52;;;;;;;11.43;4.40;;;;;;;;;;4997406;28;20045;-84
2021/08/23 02:16:19;;;;;;;11.63;5.10;;;;;;;;;;5002538;28;20508;-83
2021/08/23 02:18:45;;;;;;;10.80;5.10;;;;;;;;;;4999510;28;20042;-83
2021/08/23 02:21:11;;;;;;;11.95;4.60;;;;;;;;;;5012382;28;20038;-84
2021/08/23 02:23:37;;;;;;;9.77;4.82;;;;;;;;;;4997166;28;20096;-83
2021/08/23 02:26:04;;;;;;;12.68;5.03;;;;;;;;;;5000907;28;20025;-84
2021/08/23 02:28:30;;;;;;;8.57;4.45;;;;;;;;;;4999112;28;20033;-85
2021/08/23 02:30:56;;;;;;;11.65;4.75;;;;;;;;;;5016673;28;20462;-85
2021/08/23 02:33:23;;;;;;;11.68;5.30;;;;;;;;;;5001899;28;20025;-85
2021/08/23 02:35:49;;;;;;;11.13;5.03;;;;;;;;;;5012227;28;20038;-85
2021/08/23 02:38:15;;;;;;;12.40;5.68;;;;;;;;;;4999092;28;20034;-84
2021/08/23 02:40:41;;;;;;;11.00;5.28;;;;;;;;;;4996533;28;20033;-85
2021/08/23 02:43:08;;;;;;;12.55;5.40;;;;;;;;;;5020276;28;20787;-85
2021/08/23 02:45:34;;;;;;;13.25;5.50;;;;;;;;;;4997365;28;20029;-85
2021/08/23 02:48:00;;;;;;;10.95;5.82;;;;;;;;;;5003556;28;20026;-85
2021/08/23 02:50:26;;;;;;;12.00;5.47;;;;;;;;;;5001479;28;20021;-85
2021/08/23 02:52:53;;;;;;;10.60;5.45;;;;;;;;;;4997993;28;20029;-84
2021/08/23 02:55:19;;;;;;;10.35;5.30;;;;;;;;;;5002877;28;20022;-84
2021/08/23 02:57:45;;;;;;;11.90;5.80;;;;;;;;;;4992983;28;20026;-86
2021/08/23 03:00:12;;;;;;;10.85;5.15;;;;;;;;;;5001616;28;20033;-85
2021/08/23 03:02:38;;;;;;;12.23;5.57;;;;;;;;;;5014552;28;20037;-86
2021/08/23 03:05:04;;;;;;;11.70;5.40;;;;;;;;;;5003208;28;20018;-86
2021/08/23 03:07:31;;;;;;;13.82;5.57;;;;;;;;;;4997267;28;20037;-86
2021/08/23 03:09:57;;;;;;;11.13;5.47;;;;;;;;;;4999081;28;20032;-86
2021/08/23 03:12:24;;;;;;;11.65;5.47;;;;;;;;;;5014156;28;20704;-86
2021/08/23 03:14:50;;;;;;;10.35;4.97;;;;;;;;;;4998474;28;20072;-86
2021/08/23 03:17:17;;;;;;;12.30;5.68;;;;;;;;;;5001350;28;20120;-85
2021/08/23 03:19:43;;;;;;;12.18;5.40;;;;;;;;;;4994869;28;20057;-86
2021/08/23 03:22:10;;;;;;;11.50;5.45;;;;;;;;;;5018092;28;20022;-85
2021/08/23 03:24:36;;;;;;;11.75;5.38;;;;;;;;;;4996539;28;20400;-87
2021/08/23 03:27:02;;;;;;;9.88;4.68;;;;;;;;;;4997830;28;20034;-85
2021/08/23 03:29:32;;;;;;;11.95;5.00;;;;;;;;;;5003622;28;20376;-86
2021/08/23 03:31:58;;;;;;;10.38;5.20;;;;;;;;;;4998631;28;20041;-86
2021/08/23 03:34:24;;;;;;;10.50;4.85;;;;;;;;;;5000594;28;20129;-85
2021/08/23 03:36:51;;;;;;;11.93;4.80;;;;;;;;;;4995613;28;20033;-86
2021/08/23 03:39:17;;;;;;;11.80;5.28;;;;;;;;;;5002394;28;20087;-86
2021/08/23 03:41:43;;;;;;;11.77;4.20;;;;;;;;;;5010246;28;20026;-86
2021/08/23 03:44:09;;;;;;;11.32;4.85;;;;;;;;;;4999854;28;20080;-86
2021/08/23 03:46:36;;;;;;;11.20;4.88;;;;;;;;;;4998239;28;20693;-87
2021/08/23 03:49:03;;;;;;;13.20;4.75;;;;;;;;;;5000753;28;20087;-87
2021/08/23 03:51:31;;;;;;;11.13;4.55;;;;;;;;;;4999047;28;20032;-85
2021/08/23 03:53:57;;;;;;;17.42;4.70;;;;;;;;;;4997972;28;20030;-85
2021/08/23 03:56:23;;;;;;;12.23;4.63;;;;;;;;;;5002064;28;20360;-85
2021/08/23 03:58:50;;;;;;;10.13;4.40;;;;;;;;;;4993192;28;20034;-86
2021/08/23 04:01:17;;;;;;;10.98;4.40;;;;;;;;;;5019251;28;20060;-85
2021/08/23 04:03:43;;;;;;;9.57;4.28;;;;;;;;;;5013154;28;20030;-86
2021/08/23 04:06:11;;;;;;;10.43;4.28;;;;;;;;;;4997902;28;20037;-86
2021/08/23 04:08:37;;;;;;;10.13;4.68;;;;;;;;;;5016986;28;20891;-86
2021/08/23 04:11:05;;;;;;;11.95;4.78;;;;;;;;;;5003175;28;20033;-85
2021/08/23 04:13:31;;;;;;;10.18;4.30;;;;;;;;;;4996340;28;20149;-85
2021/08/23 04:16:00;;;;;;;11.95;4.05;;;;;;;;;;5016834;28;20029;-80
2021/08/23 04:18:27;;;;;;;10.95;3.88;;;;;;;;;;4997708;28;20033;-83
2021/08/23 04:20:54;;;;;;;10.27;4.03;;;;;;;;;;4996930;28;22819;-84
2021/08/23 04:23:21;;;;;;;10.63;3.88;;;;;;;;;;5001590;28;20021;-82
2021/08/23 04:25:47;;;;;;;14.48;4.05;;;;;;;;;;5007090;28;20037;-83
2021/08/23 04:28:13;;;;;;;12.10;3.55;;;;;;;;;;5006055;28;20028;-86
2021/08/23 04:30:39;;;;;;;11.90;3.80;;;;;;;;;;4996782;28;20026;-85
2021/08/23 04:33:06;;;;;;;11.35;3.60;;;;;;;;;;5005551;28;20030;-86
2021/08/23 04:35:33;;;;;;;12.63;4.20;;;;;;;;;;4998293;28;20033;-86
2021/08/23 04:38:00;;;;;;;13.00;3.72;;;;;;;;;;5003259;28;20509;-87
2021/08/23 04:40:26;;;;;;;11.20;3.60;;;;;;;;;;5010346;28;20118;-87
2021/08/23 04:42:52;;;;;;;17.73;4.13;;;;;;;;;;5003321;28;20025;-86
2021/08/23 04:45:18;;;;;;;11.80;3.90;;;;;;;;;;5007418;28;20033;-86
2021/08/23 04:47:44;;;;;;;10.48;3.85;;;;;;;;;;5009207;28;21023;-85
2021/08/23 04:50:11;;;;;;;14.05;3.80;;;;;;;;;;5013656;28;20029;-84
2021/08/23 04:52:41;;;;;;;14.15;4.13;;;;;;;;;;5004662;28;20040;-86
2021/08/23 04:55:07;;;;;;;14.82;3.78;;;;;;;;;;5015585;28;20037;-86
2021/08/23 04:57:33;;;;;;;12.75;3.53;;;;;;;;;;5008990;28;20025;-86
2021/08/23 05:00:00;;;;;;;14.30;4.28;;;;;;;;;;5023542;28;20112;-86
2021/08/23 05:02:26;;;;;;;10.43;3.70;;;;;;;;;;5010932;28;20121;-86
2021/08/23 05:04:52;;;;;;;9.85;3.60;;;;;;;;;;5021126;28;20076;-86
2021/08/23 05:07:18;;;;;;;10.20;3.38;;;;;;;;;;5011424;28;20382;-85
2021/08/23 05:09:45;;;;;;;13.07;3.67;;;;;;;;;;5004495;28;20025;-87
2021/08/23 05:12:11;;;;;;;14.98;3.80;;;;;;;;;;5021951;28;20030;-86
2021/08/23 05:14:37;;;;;;;11.95;3.60;;;;;;;;;;4999260;28;20025;-85
2021/08/23 05:17:04;;;;;;;13.50;3.88;;;;;;;;;;5005029;28;20551;-86
2021/08/23 05:19:30;;;;;;;14.02;3.65;;;;;;;;;;5004491;28;20064;-86
2021/08/23 05:21:56;;;;;;;12.50;3.30;;;;;;;;;;5034867;28;20033;-87
2021/08/23 05:24:22;;;;;;;15.82;3.50;;;;;;;;;;5026419;28;20034;-86
2021/08/23 05:26:49;;;;;;;12.07;3.92;;;;;;;;;;5011882;28;20025;-85
2021/08/23 05:29:15;;;;;;;13.05;3.55;;;;;;;;;;5008604;28;20516;-84
2021/08/23 05:31:41;;;;;;;14.23;3.83;;;;;;;;;;5002021;28;20677;-84
2021/08/23 05:34:07;;;;;;;12.93;3.47;;;;;;;;;;5004681;28;20025;-84
2021/08/23 05:36:34;;;;;;;10.98;3.28;;;;;;;;;;5003351;28;20037;-85
2021/08/23 05:39:00;;;;;;;12.65;4.05;;;;;;;;;;5000937;28;20079;-83
2021/08/23 05:41:26;;;;;;;13.38;4.32;;;;;;;;;;5003929;28;20029;-84
2021/08/23 05:43:53;;;;;;;12.57;4.03;;;;;;;;;;5002582;28;20028;-84
2021/08/23 05:46:23;;;;;;;11.50;3.58;;;;;;;;;;5006014;28;20033;-84
2021/08/23 05:48:49;;;;;;;14.43;4.25;;;;;;;;;;4997925;28;21019;-86
2021/08/23 05:51:16;;;;;;;15.38;4.38;;;;;;;;;;5007779;28;20029;-85
2021/08/23 05:53:43;;;;;;;16.48;4.80;;;;;;;;;;5000249;28;20026;-86
2021/08/23 05:56:10;;;;;;;14.55;4.00;;;;;;;;;;5004415;28;20123;-85
2021/08/23 05:58:36;;;;;;;13.23;3.85;;;;;;;;;;5000112;28;20103;-85
2021/08/23 06:01:05;;;;;;;14.35;3.90;;;;;;;;;;5020574;28;20026;-85
2021/08/23 06:03:31;;;;;;;13.63;4.00;;;;;;;;;;5017517;28;20032;-82
2021/08/23 06:05:57;;;;;;;12.93;3.80;;;;;;;;;;5002014;28;20053;-85
2021/08/23 06:08:27;;;;;;;12.60;4.13;;;;;;;;;;5004077;28;20087;-85
2021/08/23 06:10:54;;;;;;;14.20;4.00;;;;;;;;;;4997574;28;20037;-84
2021/08/23 06:13:20;;;;;;;14.70;4.25;;;;;;;;;;5001303;28;20050;-85
2021/08/23 06:15:49;;;;;;;18.75;3.78;;;;;;;;;;4997370;28;20092;-85
2021/08/23 06:18:15;;;;;;;13.60;4.03;;;;;;;;;;4998757;28;20029;-85
2021/08/23 06:20:43;;;;;;;14.90;4.32;;;;;;;;;;5017953;28;20022;-84
2021/08/23 06:23:09;;;;;;;18.55;4.43;;;;;;;;;;5002944;28;20121;-85
2021/08/23 06:25:36;;;;;;;18.15;3.83;;;;;;;;;;4999906;28;20025;-85
2021/08/23 06:28:02;;;;;;;15.60;4.05;;;;;;;;;;5002659;28;20026;-86
2021/08/23 06:30:28;;;;;;;12.82;3.95;;;;;;;;;;4999671;28;20034;-85
2021/08/23 06:32:54;;;;;;;15.80;4.10;;;;;;;;;;5014616;28;20057;-85
2021/08/23 06:35:21;;;;;;;16.13;4.63;;;;;;;;;;5001420;28;20041;-85
2021/08/23 06:37:47;;;;;;;13.68;4.03;;;;;;;;;;4997199;28;20029;-84
2021/08/23 06:40:14;;;;;;;17.83;4.10;;;;;;;;;;5007537;28;20022;-84
2021/08/23 06:42:41;;;;;;;18.95;4.40;;;;;;;;;;4998160;28;20033;-84
2021/08/23 06:45:07;;;;;;;17.85;4.32;;;;;;;;;;5003807;28;20029;-85
2021/08/23 06:47:34;;;;;;;17.75;4.63;;;;;;;;;;5016475;28;20031;-85
2021/08/23 06:50:00;;;;;;;14.02;4.22;;;;;;;;;;4999396;28;20037;-85
2021/08/23 06:52:27;;;;;;;20.00;4.45;;;;;;;;;;5037094;28;20070;-92
2021/08/23 06:54:53;;;;;;;15.32;3.78;;;;;;;;;;5018332;28;20029;-93
2021/08/23 06:57:28;;;;;;;14.07;4.55;;;;;;;;;;5019515;28;20030;-93
2021/08/23 06:59:54;;;;;;;11.85;3.75;;;;;;;;;;5037259;28;20033;-93
2021/08/23 07:02:21;;;;;;;13.80;3.83;;;;;;;;;;5027431;28;21046;-91
2021/08/23 07:04:51;;;;;;;15.25;4.07;;;;;;;;;;5028736;28;20920;-92
2021/08/23 07:07:20;;;;;;;18.65;4.30;;;;;;;;;;5043279;28;20037;-91
2021/08/23 07:09:47;;;;;;;17.27;4.53;;;;;;;;;;5014144;28;20568;-84
2021/08/23 07:12:13;;;;;;;16.30;4.13;;;;;;;;;;5019003;28;20083;-83
2021/08/23 07:14:39;;;;;;;16.98;4.15;;;;;;;;;;5016005;28;20107;-80
2021/08/23 07:17:06;;;;;;;17.67;4.13;;;;;;;;;;5014330;28;20029;-80
2021/08/23 07:19:33;;;;;;;15.93;5.10;;;;;;;;;;4999858;28;20038;-90
2021/08/23 07:21:59;;;;;;;14.18;3.67;;;;;;;;;;5023584;28;20010;-91
2021/08/23 07:24:26;;;;;;;16.50;4.43;;;;;;;;;;5015832;28;20117;-89
2021/08/23 07:26:52;;;;;;;16.33;4.10;;;;;;;;;;5030427;28;20080;-90
2021/08/23 07:29:19;;;;;;;16.88;4.05;;;;;;;;;;5015798;28;20049;-91
2021/08/23 07:31:45;;;;;;;18.02;4.03;;;;;;;;;;5022879;28;20040;-89
2021/08/23 07:34:14;;;;;;;13.82;4.20;;;;;;;;;;5030050;28;20038;-83
2021/08/23 07:36:41;;;;;;;13.88;4.00;;;;;;;;;;5024270;28;20374;-83
2021/08/23 07:39:07;;;;;;;15.32;3.75;;;;;;;;;;5006497;28;20026;-81
2021/08/23 07:41:33;;;;;;;14.13;3.63;;;;;;;;;;5023837;28;20033;-82
2021/08/23 07:43:59;;;;;;;14.50;3.90;;;;;;;;;;5015832;28;20564;-83
2021/08/23 07:46:26;;;;;;;20.73;4.53;;;;;;;;;;5007805;28;20075;-83
2021/08/23 07:48:52;;;;;;;20.20;4.03;;;;;;;;;;4996226;28;20601;-83
2021/08/23 07:51:18;;;;;;;14.73;3.70;;;;;;;;;;4999258;28;20025;-84
2021/08/23 07:53:44;;;;;;;18.30;4.18;;;;;;;;;;5011176;28;20087;-83
2021/08/23 07:56:11;;;;;;;15.65;3.75;;;;;;;;;;4998473;28;20025;-85
2021/08/23 07:58:37;;;;;;;16.63;3.70;;;;;;;;;;5002148;28;20036;-83
2021/08/23 08:01:03;;;;;;;14.18;3.63;;;;;;;;;;4997725;28;20667;-83
2021/08/23 08:03:29;;;;;;;10.68;3.70;;;;;;;;;;5003912;28;20492;-82
2021/08/23 08:05:55;;;;;;;11.85;3.38;;;;;;;;;;5001735;28;20021;-84
2021/08/23 08:08:22;;;;;;;14.93;3.53;;;;;;;;;;4998493;28;20603;-83
2021/08/23 08:10:49;;;;;;;16.70;3.85;;;;;;;;;;5011573;28;20724;-83
2021/08/23 08:13:15;;;;;;;15.07;3.85;;;;;;;;;;4999772;28;20072;-82
2021/08/23 08:15:41;;;;;;;12.75;3.42;;;;;;;;;;5003636;28;20041;-83
2021/08/23 08:18:08;;;;;;;11.65;3.65;;;;;;;;;;5003854;28;20092;-82
2021/08/23 08:20:34;;;;;;;12.02;3.63;;;;;;;;;;4997155;28;20025;-82
2021/08/23 08:23:00;;;;;;;17.77;3.90;;;;;;;;;;5019197;28;20066;-83
2021/08/23 08:25:27;;;;;;;13.30;3.60;;;;;;;;;;5003122;28;20333;-83
2021/08/23 08:27:53;;;;;;;15.93;4.05;;;;;;;;;;5001421;28;20017;-82
2021/08/23 08:30:22;;;;;;;13.70;3.50;;;;;;;;;;5005752;28;20034;-84
2021/08/23 08:32:48;;;;;;;17.48;3.65;;;;;;;;;;5001685;28;20033;-82
2021/08/23 08:35:16;;;;;;;13.32;3.78;;;;;;;;;;5006375;28;20135;-84
2021/08/23 08:37:43;;;;;;;16.42;3.85;;;;;;;;;;5001706;28;20739;-82
2021/08/23 08:40:10;;;;;;;20.92;4.47;;;;;;;;;;5019211;28;20116;-84
2021/08/23 08:42:36;;;;;;;15.55;3.80;;;;;;;;;;4997257;28;20038;-83
2021/08/23 08:45:03;;;;;;;10.95;3.60;;;;;;;;;;5003559;28;20022;-82
2021/08/23 08:47:30;;;;;;;12.70;3.72;;;;;;;;;;5000243;28;20034;-84
2021/08/23 08:49:59;;;;;;;13.02;3.65;;;;;;;;;;5000914;28;20042;-82
2021/08/23 08:52:26;;;;;;;18.02;4.10;;;;;;;;;;4998180;28;20428;-83
2021/08/23 08:54:52;;;;;;;12.88;3.63;;;;;;;;;;4995028;28;20107;-82
2021/08/23 08:57:19;;;;;;;14.77;3.40;;;;;;;;;;5004201;28;20029;-82
2021/08/23 08:59:45;;;;;;;10.25;3.47;;;;;;;;;;4994661;28;20476;-83
2021/08/23 09:02:12;;;;;;;12.13;3.78;;;;;;;;;;5014270;28;20084;-82
2021/08/23 09:04:39;;;;;;;11.93;3.45;;;;;;;;;;4996460;28;20029;-82
2021/08/23 09:07:10;;;;;;;10.88;3.60;;;;;;;;;;5002139;28;20036;-82
2021/08/23 09:09:36;;;;;;;12.05;3.67;;;;;;;;;;4997057;28;20034;-83
2021/08/23 09:12:07;;;;;;;15.73;4.00;;;;;;;;;;5003744;28;20109;-83
2021/08/23 09:14:34;;;;;;;14.52;3.88;;;;;;;;;;4995501;28;20107;-83
2021/08/23 09:17:04;;;;;;;14.77;3.80;;;;;;;;;;5003794;28;20091;-82
2021/08/23 09:19:34;;;;;;;12.82;3.55;;;;;;;;;;5012022;28;20049;-83
2021/08/23 09:22:21;;;;;;;14.57;4.00;;;;;;;;;;4996998;28;20036;-83
2021/08/23 09:24:48;;;;;;;14.65;3.60;;;;;;;;;;5013571;28;20665;-83
2021/08/23 09:27:14;;;;;;;12.63;4.25;;;;;;;;;;5003175;28;20694;-83
2021/08/23 09:29:56;;;;;;;15.05;3.45;;;;;;;;;;4995017;28;20045;-84
2021/08/23 09:32:25;;;;;;;14.07;4.35;;;;;;;;;;5000539;28;20017;-82
2021/08/23 09:34:51;;;;;;;12.55;3.78;;;;;;;;;;4991912;28;20388;-83
2021/08/23 09:37:19;;;;;;;10.77;3.22;;;;;;;;;;5003190;28;20039;-84
2021/08/23 09:39:45;;;;;;;11.90;3.50;;;;;;;;;;4990983;28;20026;-84
2021/08/23 09:42:13;;;;;;;11.80;3.58;;;;;;;;;;4998619;28;20083;-85
2021/08/23 09:44:40;;;;;;;14.15;3.67;;;;;;;;;;5029398;28;20120;-91
2021/08/23 09:47:06;;;;;;;10.25;3.28;;;;;;;;;;4997654;28;20477;-83
2021/08/23 09:49:37;;;;;;;11.10;3.08;;;;;;;;;;4992985;28;20033;-86
2021/08/23 09:52:03;;;;;;;10.98;3.30;;;;;;;;;;5011385;28;20040;-90
2021/08/23 09:54:30;;;;;;;12.57;3.60;;;;;;;;;;5002071;28;20044;-82
2021/08/23 09:56:56;;;;;;;12.90;3.33;;;;;;;;;;4998457;28;20029;-83
2021/08/23 09:59:24;;;;;;;13.98;3.10;;;;;;;;;;5007501;28;20468;-92
2021/08/23 10:01:52;;;;;;;11.60;3.20;;;;;;;;;;5011874;28;21501;-90
2021/08/23 10:04:18;;;;;;;10.43;2.90;;;;;;;;;;5008844;28;20026;-85
2021/08/23 10:06:45;;;;;;;14.30;3.38;;;;;;;;;;4996572;28;20034;-84
2021/08/23 10:09:16;;;;;;;13.80;3.45;;;;;;;;;;5002030;28;20061;-85
2021/08/23 10:11:43;;;;;;;15.18;2.90;;;;;;;;;;5003715;28;20041;-84
2021/08/23 10:14:09;;;;;;;11.52;3.15;;;;;;;;;;5022950;28;20110;-83
2021/08/23 10:16:36;;;;;;;13.73;3.67;;;;;;;;;;5005510;28;20737;-83
2021/08/23 10:19:03;;;;;;;9.65;2.80;;;;;;;;;;5010769;28;20166;-83
2021/08/23 10:21:33;;;;;;;11.45;3.25;;;;;;;;;;5007270;28;20056;-83
2021/08/23 10:24:00;;;;;;;11.82;3.20;;;;;;;;;;5000149;28;20389;-83
2021/08/23 10:26:26;;;;;;;11.60;3.28;;;;;;;;;;4997869;28;20025;-83
2021/08/23 10:28:53;;;;;;;10.43;3.03;;;;;;;;;;4997557;28;20037;-83
2021/08/23 10:31:22;;;;;;;10.48;2.60;;;;;;;;;;5002389;28;20036;-83
2021/08/23 10:33:50;;;;;;;10.57;3.00;;;;;;;;;;4994392;28;20787;-83
2021/08/23 10:36:16;;;;;;;12.35;3.30;;;;;;;;;;5014764;28;20034;-82
2021/08/23 10:38:47;;;;;;;11.35;3.00;;;;;;;;;;5015847;28;20033;-83
2021/08/23 10:41:15;;;;;;;11.57;3.15;;;;;;;;;;5001409;28;20101;-82
2021/08/23 10:46:50;;;;;;;10.13;2.90;;;;;;;;;;4993095;28;20045;-84
2021/08/23 10:49:17;;;;;;;8.40;2.72;;;;;;;;;;4986510;28;20028;-84
2021/08/23 10:51:44;;;;;;;12.80;3.33;;;;;;;;;;4981605;28;20026;-84
2021/08/23 10:54:34;;;;;;;11.32;2.85;;;;;;;;;;4984707;28;20037;-83
2021/08/23 10:57:00;;;;;;;9.40;2.97;;;;;;;;;;4986067;28;20116;-90
2021/08/23 10:59:37;;;;;;;12.02;3.30;;;;;;;;;;5011039;28;20033;-89
2021/08/23 11:02:04;;;;;;;11.13;2.88;;;;;;;;;;5005441;28;20030;-88
2021/08/23 11:04:31;;;;;;;10.13;3.30;;;;;;;;;;5001327;28;20025;-88
2021/08/23 11:06:58;;;;;;;13.38;3.60;;;;;;;;;;5001175;28;20060;-88
2021/08/23 11:09:38;;;;;;;11.20;3.10;;;;;;;;;;5012589;28;20025;-88
2021/08/23 11:12:10;;;;;;;11.50;3.33;;;;;;;;;;5002341;28;20060;-86
2021/08/23 11:14:46;;;;;;;12.23;3.80;;;;;;;;;;4967483;28;20549;-85
2021/08/23 11:17:13;;;;;;;10.88;3.33;;;;;;;;;;4981892;28;20040;-82
2021/08/23 11:19:40;;;;;;;11.75;3.08;;;;;;;;;;4978674;28;20064;-81
2021/08/23 11:22:06;;;;;;;8.18;3.00;;;;;;;;;;4969682;28;20026;-84
2021/08/23 11:24:34;;;;;;;11.85;2.80;;;;;;;;;;4983273;28;20030;-85
2021/08/23 11:27:02;;;;;;;11.35;3.20;;;;;;;;;;4963530;28;20057;-83
2021/08/23 11:29:38;;;;;;;8.30;3.00;;;;;;;;;;4984215;28;20056;-85
2021/08/23 11:32:08;;;;;;;11.98;3.47;;;;;;;;;;4984541;28;20034;-85
2021/08/23 11:34:35;;;;;;;11.18;3.92;;;;;;;;;;4983079;28;20034;-90
2021/08/23 11:37:02;;;;;;;11.88;4.30;;;;;;;;;;4985123;28;20471;-89
2021/08/23 11:39:30;;;;;;;10.50;3.58;;;;;;;;;;4997523;28;20094;-91
2021/08/23 11:41:57;;;;;;;11.15;3.45;;;;;;;;;;5000257;28;20022;-87
2021/08/23 11:44:24;;;;;;;14.68;3.42;;;;;;;;;;4991603;28;20030;-86
2021/08/23 11:46:56;;;;;;;9.98;2.88;;;;;;;;;;4984519;28;20041;-83
2021/08/23 11:49:36;;;;;;;10.77;2.92;;;;;;;;;;4968120;28;20125;-83
2021/08/23 11:52:12;;;;;;;11.13;3.10;;;;;;;;;;4976152;28;20041;-85
2021/08/23 11:54:46;;;;;;;11.63;3.45;;;;;;;;;;4986147;28;20316;-81
2021/08/23 11:57:20;;;;;;;11.60;2.90;;;;;;;;;;4986946;28;20140;-82
2021/08/23 12:00:16;;;;;;;8.88;2.83;;;;;;;;;;5008221;28;20052;-90
2021/08/23 12:02:42;;;;;;;8.88;3.20;;;;;;;;;;4963107;28;20023;-86
2021/08/23 12:05:15;;;;;;;8.60;3.22;;;;;;;;;;4990036;28;20030;-84
2021/08/23 12:07:48;;;;;;;8.80;2.75;;;;;;;;;;4990270;28;20025;-87
2021/08/23 12:10:31;;;;;;;11.00;3.30;;;;;;;;;;4992829;28;20054;-84
2021/08/23 12:13:07;;;;;;;8.18;2.80;;;;;;;;;;5002744;28;20006;-91
2021/08/23 12:15:35;;;;;;;7.57;3.10;;;;;;;;;;5018183;28;20011;-94
2021/08/23 12:18:17;;;;;;;10.40;2.85;;;;;;;;;;5020192;28;20030;-95
2021/08/23 12:21:02;;;;;;;9.40;2.80;;;;;;;;;;5019306;28;20098;-92
2021/08/23 12:23:29;;;;;;;11.48;3.22;;;;;;;;;;5003464;28;20105;-85
2021/08/23 12:26:06;;;;;;;10.98;3.30;;;;;;;;;;5011225;28;20002;-87
2021/08/23 12:28:32;;;;;;;8.30;2.50;;;;;;;;;;5005112;28;20065;-87
2021/08/23 12:31:05;;;;;;;9.10;3.13;;;;;;;;;;4999777;28;20018;-87
2021/08/23 12:33:32;;;;;;;11.02;2.88;;;;;;;;;;5004630;28;20022;-88
2021/08/23 12:35:58;;;;;;;9.05;2.92;;;;;;;;;;4996403;28;20018;-88
2021/08/23 12:38:27;;;;;;;12.00;3.20;;;;;;;;;;4978736;28;20034;-86
2021/08/23 12:40:54;;;;;;;11.57;3.10;;;;;;;;;;4989887;28;20046;-87
2021/08/23 12:43:20;;;;;;;12.80;3.22;;;;;;;;;;4993164;28;20658;-88
2021/08/23 12:45:49;;;;;;;9.73;2.78;;;;;;;;;;4974587;28;20049;-86
2021/08/23 12:48:15;;;;;;;8.73;2.60;;;;;;;;;;4981327;28;21540;-85
2021/08/23 12:50:41;;;;;;;10.18;3.00;;;;;;;;;;4971454;28;20504;-92
2021/08/23 12:53:08;;;;;;;9.02;2.70;;;;;;;;;;4968691;28;20503;-89
2021/08/23 12:55:34;;;;;;;9.98;2.75;;;;;;;;;;4974281;28;20537;-91
2021/08/23 12:58:01;;;;;;;8.00;2.60;;;;;;;;;;4983294;28;20038;-92
2021/08/23 13:00:27;;;;;;;9.45;2.55;;;;;;;;;;4975839;28;20029;-91
2021/08/23 13:02:56;;;;;;;8.15;2.78;;;;;;;;;;4969338;28;20026;-87
2021/08/23 13:05:22;;;;;;;10.23;2.90;;;;;;;;;;4991362;28;20033;-88
2021/08/23 13:07:52;;;;;;;7.53;2.30;;;;;;;;;;4972081;28;20461;-92
2021/08/23 13:10:19;;;;;;;9.98;2.40;;;;;;;;;;4978702;28;20033;-86
2021/08/23 13:12:45;;;;;;;9.00;2.65;;;;;;;;;;4966358;28;20053;-83
2021/08/23 13:15:11;;;;;;;9.63;2.70;;;;;;;;;;4981190;28;20885;-82
2021/08/23 13:17:37;;;;;;;7.72;2.70;;;;;;;;;;4974790;28;20814;-79
2021/08/23 13:20:05;;;;;;;7.30;2.60;;;;;;;;;;4991190;28;20029;-91
2021/08/23 13:22:31;;;;;;;9.52;2.75;;;;;;;;;;4995736;28;20038;-89
2021/08/23 13:24:58;;;;;;;8.10;2.60;;;;;;;;;;5000170;28;20025;-88
2021/08/23 13:27:24;;;;;;;9.45;2.65;;;;;;;;;;4991475;28;20065;-90
2021/08/23 13:29:51;;;;;;;8.80;2.50;;;;;;;;;;5001223;28;20927;-86
2021/08/23 13:32:17;;;;;;;10.45;2.85;;;;;;;;;;4988831;28;20101;-86
2021/08/23 13:34:43;;;;;;;8.90;2.55;;;;;;;;;;4984900;28;20061;-83
2021/08/23 13:37:10;;;;;;;9.13;2.72;;;;;;;;;;4983771;28;20136;-84
2021/08/23 13:39:36;;;;;;;9.65;3.05;;;;;;;;;;4980972;28;20141;-81
2021/08/23 13:42:02;;;;;;;9.18;2.72;;;;;;;;;;4986456;28;20030;-82
2021/08/23 13:44:28;;;;;;;8.40;2.20;;;;;;;;;;4974677;28;20065;-80
2021/08/23 13:46:55;;;;;;;7.10;2.75;;;;;;;;;;4975169;28;20037;-80
2021/08/23 13:49:21;;;;;;;7.90;2.60;;;;;;;;;;4983653;28;20081;-79
2021/08/23 13:51:48;;;;;;;8.18;2.55;;;;;;;;;;4976614;28;20029;-82
2021/08/23 13:54:14;;;;;;;11.38;2.47;;;;;;;;;;4971374;28;20943;-80
2021/08/23 13:56:40;;;;;;;8.95;2.40;;;;;;;;;;4964618;28;20033;-81
2021/08/23 13:59:06;;;;;;;8.95;2.40;;;;;;;;;;4979716;28;20550;-81
2021/08/23 14:01:33;;;;;;;7.85;2.53;;;;;;;;;;4964759;28;20030;-83
2021/08/23 14:03:59;;;;;;;6.93;2.33;;;;;;;;;;4981739;28;20101;-80
2021/08/23 14:06:25;;;;;;;9.07;2.15;;;;;;;;;;4982950;28;20034;-80
2021/08/23 14:08:51;;;;;;;8.70;2.63;;;;;;;;;;4981764;28;20042;-81
2021/08/23 14:11:18;;;;;;;6.60;2.42;;;;;;;;;;4982676;28;20529;-90
2021/08/23 14:13:44;;;;;;;7.70;2.70;;;;;;;;;;4988412;28;20038;-90
2021/08/23 14:16:10;;;;;;;9.35;2.85;;;;;;;;;;4993149;28;20032;-90
2021/08/23 14:18:37;;;;;;;7.90;2.83;;;;;;;;;;4999586;28;20038;-86
2021/08/23 14:21:03;;;;;;;8.02;2.88;;;;;;;;;;4989753;28;20034;-85
2021/08/23 14:23:30;;;;;;;7.03;2.90;;;;;;;;;;4985367;28;20037;-87
2021/08/23 14:25:56;;;;;;;10.10;2.78;;;;;;;;;;4975775;28;20037;-86
2021/08/23 14:28:22;;;;;;;7.72;2.50;;;;;;;;;;4970263;28;20032;-85
2021/08/23 14:30:49;;;;;;;7.75;2.70;;;;;;;;;;4966190;28;20117;-86
2021/08/23 14:33:15;;;;;;;8.48;3.00;;;;;;;;;;4984664;28;20129;-85
2021/08/23 14:35:41;;;;;;;7.85;2.63;;;;;;;;;;4980175;28;20501;-84
2021/08/23 14:38:08;;;;;;;8.50;2.50;;;;;;;;;;4967902;28;20033;-84